Time;durP1;ratioP1;P1;durP2;ratioP2;P2;SDS_P1;SDS_P2;PMS_P1;PMS_P2;Temp;Humidity;BMP_temperature;BMP_pressure;BME280_temperature;BME280_humidity;BME280_pressure;Samples;Min_cycle;Max_cycle;Signal;HPM_P1;HPM_P2
2021/06/23 00:01:45;;;;;;;;;;;16.90;99.90;;;;;;5014234;28;19905;-79
2021/06/23 00:04:10;;;;;;;;;;;16.90;99.90;;;;;;5013391;28;20000;-78
2021/06/23 00:06:36;;;;;;;;;;;17.00;99.90;;;;;;5013572;28;19956;-78
2021/06/23 00:09:04;;;;;;;;;;;17.00;99.90;;;;;;5021196;28;19914;-79
2021/06/23 00:11:37;;;;;;;;;;;17.00;99.90;;;;;;5021542;28;19909;-79
2021/06/23 00:14:03;;;;;;;;;;;16.90;99.90;;;;;;5014954;28;19917;-79
2021/06/23 00:16:28;;;;;;;;;;;17.00;99.90;;;;;;5015146;28;25127;-79
2021/06/23 00:18:54;;;;;;;;;;;17.00;99.90;;;;;;5013572;28;19967;-78
2021/06/23 00:21:19;;;;;;;;;;;17.00;99.90;;;;;;5013441;28;19910;-79
2021/06/23 00:23:44;;;;;;;;;;;17.00;99.90;;;;;;5013522;28;19906;-79
2021/06/23 00:26:10;;;;;;;;;;;17.00;99.90;;;;;;5014027;28;20012;-79
2021/06/23 00:28:35;;;;;;;;;;;17.00;99.90;;;;;;5014647;28;20275;-79
2021/06/23 00:31:01;;;;;;;;;;;17.00;99.90;;;;;;5013819;28;19996;-79
2021/06/23 00:33:30;;;;;;;;;;;17.10;99.90;;;;;;5013473;28;19912;-79
2021/06/23 00:35:55;;;;;;;;;;;17.10;99.90;;;;;;5013258;28;19910;-79
2021/06/23 00:38:21;;;;;;;;;;;17.00;99.90;;;;;;5013581;28;19920;-79
2021/06/23 00:40:46;;;;;;;;;;;17.10;99.90;;;;;;5013733;28;19905;-79
2021/06/23 00:43:12;;;;;;;;;;;17.10;99.90;;;;;;5013109;28;20364;-79
2021/06/23 00:45:38;;;;;;;;;;;17.10;99.90;;;;;;5014805;28;19909;-79
2021/06/23 00:48:07;;;;;;;;;;;17.10;99.90;;;;;;5013356;28;19968;-79
2021/06/23 00:50:33;;;;;;;;;;;17.10;99.90;;;;;;5013320;28;19917;-79
2021/06/23 00:52:59;;;;;;;;;;;17.10;99.90;;;;;;5013183;28;19910;-78
2021/06/23 00:55:25;;;;;;;;;;;17.00;99.90;;;;;;5012914;28;20000;-79
2021/06/23 00:57:52;;;;;;;;;;;17.10;99.90;;;;;;5013366;28;19917;-78
2021/06/23 01:00:20;;;;;;;;;;;17.00;99.90;;;;;;5014440;28;20000;-79
2021/06/23 01:02:46;;;;;;;;;;;17.00;99.90;;;;;;5012932;28;19909;-79
2021/06/23 01:05:12;;;;;;;;;;;17.00;99.90;;;;;;5013005;28;19909;-78
2021/06/23 01:07:38;;;;;;;;;;;17.00;99.90;;;;;;5013218;28;20284;-79
2021/06/23 01:10:03;;;;;;;;;;;17.00;99.90;;;;;;5013012;28;19976;-79
2021/06/23 01:12:53;;;;;;;;;;;17.00;99.90;;;;;;5012491;28;20397;-79
2021/06/23 01:15:18;;;;;;;;;;;17.00;99.90;;;;;;5012867;28;19914;-79
2021/06/23 01:17:45;;;;;;;;;;;17.00;99.90;;;;;;5013008;28;20397;-79
2021/06/23 01:20:12;;;;;;;;;;;17.00;99.90;;;;;;5012772;28;19906;-79
2021/06/23 01:22:38;;;;;;;;;;;17.00;99.90;;;;;;5012274;28;20276;-78
2021/06/23 01:25:04;;;;;;;;;;;17.00;99.90;;;;;;5012745;28;20263;-79
2021/06/23 01:27:30;;;;;;;;;;;17.00;99.90;;;;;;5012652;28;19993;-78
2021/06/23 01:29:56;;;;;;;;;;;17.00;99.90;;;;;;5012783;28;19909;-78
2021/06/23 01:32:21;;;;;;;;;;;17.10;99.90;;;;;;5011661;28;19945;-78
2021/06/23 01:34:47;;;;;;;;;;;17.10;99.90;;;;;;5012506;28;20063;-79
2021/06/23 01:37:12;;;;;;;;;;;17.10;99.90;;;;;;5012588;28;19909;-79
2021/06/23 01:39:38;;;;;;;;;;;17.00;99.90;;;;;;5013885;28;19905;-79
2021/06/23 01:42:04;;;;;;;;;;;17.00;99.90;;;;;;5012261;28;19905;-78
2021/06/23 01:44:29;;;;;;;;;;;16.90;99.90;;;;;;5012352;28;20372;-78
2021/06/23 01:46:56;;;;;;;;;;;16.90;99.90;;;;;;5012583;28;19906;-79
2021/06/23 01:49:22;;;;;;;;;;;17.00;99.90;;;;;;5012272;28;19905;-79
2021/06/23 01:51:47;;;;;;;;;;;16.90;99.90;;;;;;5013295;28;19956;-79
2021/06/23 01:54:13;;;;;;;;;;;17.00;99.90;;;;;;5011768;28;19953;-79
2021/06/23 01:56:38;;;;;;;;;;;17.00;99.90;;;;;;5011362;28;19924;-79
2021/06/23 01:59:04;;;;;;;;;;;17.00;99.90;;;;;;5011175;28;19951;-78
2021/06/23 02:01:34;;;;;;;;;;;16.90;99.90;;;;;;5010874;28;19913;-79
2021/06/23 02:04:10;;;;;;;;;;;17.00;99.90;;;;;;5010782;28;19905;-79
2021/06/23 02:06:43;;;;;;;;;;;16.90;99.90;;;;;;5010684;28;20052;-79
2021/06/23 02:09:12;;;;;;;;;;;16.90;99.90;;;;;;5010621;28;20025;-79
2021/06/23 02:11:42;;;;;;;;;;;16.90;99.90;;;;;;5010425;28;19912;-78
2021/06/23 02:14:10;;;;;;;;;;;16.90;99.90;;;;;;5010042;28;20376;-79
2021/06/23 02:16:41;;;;;;;;;;;16.90;99.90;;;;;;5011677;28;19905;-79
2021/06/23 02:19:07;;;;;;;;;;;16.90;99.90;;;;;;5010094;28;19905;-78
2021/06/23 02:21:39;;;;;;;;;;;17.00;99.90;;;;;;5010037;28;24065;-78
2021/06/23 02:24:06;;;;;;;;;;;16.80;99.90;;;;;;5009884;28;25121;-79
2021/06/23 02:26:32;;;;;;;;;;;16.80;99.90;;;;;;5011415;28;19909;-79
2021/06/23 02:28:57;;;;;;;;;;;16.90;99.90;;;;;;5011627;28;20000;-78
2021/06/23 02:31:26;;;;;;;;;;;16.90;99.90;;;;;;5010798;28;19944;-79
2021/06/23 02:33:54;;;;;;;;;;;17.00;99.90;;;;;;5011539;28;24075;-79
2021/06/23 02:36:19;;;;;;;;;;;17.00;99.90;;;;;;5012013;28;19911;-78
2021/06/23 02:38:45;;;;;;;;;;;17.00;99.90;;;;;;5010731;28;24104;-79
2021/06/23 02:41:10;;;;;;;;;;;17.00;99.90;;;;;;5010749;28;19906;-79
2021/06/23 02:43:36;;;;;;;;;;;16.80;99.90;;;;;;5010319;28;19931;-79
2021/06/23 02:46:02;;;;;;;;;;;16.80;99.90;;;;;;5010884;28;19920;-79
2021/06/23 02:48:28;;;;;;;;;;;16.70;99.90;;;;;;5010517;28;19959;-79
2021/06/23 02:50:59;;;;;;;;;;;16.70;99.90;;;;;;5010812;28;19905;-79
2021/06/23 02:53:25;;;;;;;;;;;16.70;99.90;;;;;;5011667;28;19905;-78
2021/06/23 02:55:51;;;;;;;;;;;16.70;99.90;;;;;;5010617;28;20287;-79
2021/06/23 02:58:18;;;;;;;;;;;16.70;99.90;;;;;;5010342;28;19905;-79
2021/06/23 03:00:43;;;;;;;;;;;16.70;99.90;;;;;;5010716;28;19976;-79
2021/06/23 03:03:09;;;;;;;;;;;16.70;99.90;;;;;;5011046;28;19905;-79
2021/06/23 03:05:34;;;;;;;;;;;16.80;99.90;;;;;;5010921;28;20284;-79
2021/06/23 03:08:00;;;;;;;;;;;16.80;99.90;;;;;;5010960;28;19966;-79
2021/06/23 03:10:25;;;;;;;;;;;16.70;99.90;;;;;;5010573;28;20356;-79
2021/06/23 03:12:51;;;;;;;;;;;16.70;99.90;;;;;;5010377;28;19913;-79
2021/06/23 03:15:16;;;;;;;;;;;16.70;99.90;;;;;;5011832;28;19913;-79
2021/06/23 03:17:42;;;;;;;;;;;16.70;99.90;;;;;;5010518;28;19944;-78
2021/06/23 03:20:10;;;;;;;;;;;16.70;99.90;;;;;;5010316;28;19905;-78
2021/06/23 03:22:36;;;;;;;;;;;16.80;99.90;;;;;;5010421;28;19905;-78
2021/06/23 03:25:02;;;;;;;;;;;16.80;99.90;;;;;;5010394;28;20280;-78
2021/06/23 03:27:27;;;;;;;;;;;16.80;99.90;;;;;;5010668;28;19905;-79
2021/06/23 03:29:52;;;;;;;;;;;16.80;99.90;;;;;;5010643;28;19906;-79
2021/06/23 03:32:18;;;;;;;;;;;16.70;99.90;;;;;;5011372;28;24057;-79
2021/06/23 03:34:43;;;;;;;;;;;16.70;99.90;;;;;;5010713;28;20434;-79
2021/06/23 03:37:09;;;;;;;;;;;16.60;99.90;;;;;;5010428;28;24059;-79
2021/06/23 03:39:35;;;;;;;;;;;16.70;99.90;;;;;;5011712;28;24071;-79
2021/06/23 03:42:00;;;;;;;;;;;16.70;99.90;;;;;;5010454;28;20261;-79
2021/06/23 03:44:26;;;;;;;;;;;16.70;99.90;;;;;;5010332;28;19912;-79
2021/06/23 03:46:53;;;;;;;;;;;16.70;99.90;;;;;;5010659;28;19913;-78
2021/06/23 03:49:18;;;;;;;;;;;16.70;99.90;;;;;;5010758;28;19945;-78
2021/06/23 03:51:44;;;;;;;;;;;16.80;99.90;;;;;;5010408;28;19912;-79
2021/06/23 03:54:09;;;;;;;;;;;16.70;99.90;;;;;;5010055;28;19963;-78
2021/06/23 03:56:34;;;;;;;;;;;16.70;99.90;;;;;;5013472;28;19913;-77
2021/06/23 03:59:00;;;;;;;;;;;16.60;99.90;;;;;;5013925;28;19912;-79
2021/06/23 04:01:25;;;;;;;;;;;16.60;99.90;;;;;;5013601;28;25049;-79
2021/06/23 04:03:51;;;;;;;;;;;16.60;99.90;;;;;;5015251;28;20253;-79
2021/06/23 04:06:17;;;;;;;;;;;16.60;99.90;;;;;;5014883;28;20490;-78
2021/06/23 04:08:42;;;;;;;;;;;16.50;99.90;;;;;;5013309;28;19906;-78
2021/06/23 04:11:08;;;;;;;;;;;16.50;99.90;;;;;;5013340;28;19995;-78
2021/06/23 04:13:33;;;;;;;;;;;16.40;99.90;;;;;;5012938;28;24065;-79
2021/06/23 04:15:59;;;;;;;;;;;16.30;99.90;;;;;;5013039;28;19952;-78
2021/06/23 04:18:24;;;;;;;;;;;16.30;99.90;;;;;;5013358;28;20280;-79
2021/06/23 04:20:50;;;;;;;;;;;16.30;99.90;;;;;;5013180;28;19927;-78
2021/06/23 04:23:15;;;;;;;;;;;16.40;99.90;;;;;;5013979;28;25059;-78
2021/06/23 04:25:41;;;;;;;;;;;16.30;99.90;;;;;;5014540;28;19905;-78
2021/06/23 04:28:06;;;;;;;;;;;16.30;99.90;;;;;;5012991;28;19910;-79
2021/06/23 04:30:31;;;;;;;;;;;16.30;99.90;;;;;;5013276;28;24091;-78
2021/06/23 04:32:57;;;;;;;;;;;16.30;99.90;;;;;;5013868;28;20055;-78
2021/06/23 04:35:23;;;;;;;;;;;16.30;99.90;;;;;;5014100;28;19957;-78
2021/06/23 04:37:48;;;;;;;;;;;16.20;99.90;;;;;;5013082;28;24064;-79
2021/06/23 04:40:15;;;;;;;;;;;16.20;99.90;;;;;;5014315;28;20044;-78
2021/06/23 04:42:41;;;;;;;;;;;16.20;99.90;;;;;;5012866;28;24072;-78
2021/06/23 04:45:08;;;;;;;;;;;16.20;99.90;;;;;;5012903;28;19906;-78
2021/06/23 04:47:35;;;;;;;;;;;16.20;99.90;;;;;;4992964;28;25069;-79
2021/06/23 04:50:01;;;;;;;;;;;16.10;99.90;;;;;;4993134;28;20004;-78
2021/06/23 04:52:26;;;;;;;;;;;16.10;99.90;;;;;;5004105;28;19997;-78
2021/06/23 04:54:52;;;;;;;;;;;16.20;99.90;;;;;;5012740;28;19957;-78
2021/06/23 04:57:17;;;;;;;;;;;16.10;99.90;;;;;;5007118;28;19909;-78
2021/06/23 05:00:19;;;;;;;;;;;16.10;99.90;;;;;;4993444;28;19912;-78
2021/06/23 05:02:44;;;;;;;;;;;16.20;99.90;;;;;;4993710;28;19949;-78
2021/06/23 05:05:10;;;;;;;;;;;16.20;99.90;;;;;;4993802;28;20041;-79
2021/06/23 05:07:35;;;;;;;;;;;16.30;99.90;;;;;;4994674;28;20042;-77
2021/06/23 05:10:01;;;;;;;;;;;16.30;99.90;;;;;;4993068;28;19941;-78
2021/06/23 05:12:28;;;;;;;;;;;16.30;99.90;;;;;;4992729;28;19913;-78
2021/06/23 05:14:53;;;;;;;;;;;16.30;99.90;;;;;;4994199;28;20284;-78
2021/06/23 05:17:19;;;;;;;;;;;16.30;99.90;;;;;;4993437;28;24086;-79
2021/06/23 05:19:45;;;;;;;;;;;16.20;99.90;;;;;;5001029;28;20307;-78
2021/06/23 05:22:20;;;;;;;;;;;16.20;99.90;;;;;;4997854;28;25127;-78
2021/06/23 05:24:46;;;;;;;;;;;16.30;99.90;;;;;;4992743;28;24074;-78
2021/06/23 05:27:12;;;;;;;;;;;16.30;99.90;;;;;;4992130;28;25143;-78
2021/06/23 05:29:37;;;;;;;;;;;16.30;99.90;;;;;;5008813;28;24102;-78
2021/06/23 05:32:03;;;;;;;;;;;16.20;99.90;;;;;;4993337;28;24065;-79
2021/06/23 05:34:29;;;;;;;;;;;16.20;99.90;;;;;;5147785;22;19926;-78
2021/06/23 05:36:57;;;;;;;;;;;16.30;99.90;;;;;;4993333;28;24156;-78
2021/06/23 05:39:23;;;;;;;;;;;16.10;99.90;;;;;;4975916;28;19906;-79
2021/06/23 05:41:49;;;;;;;;;;;16.20;99.90;;;;;;4976344;28;19906;-78
2021/06/23 05:44:14;;;;;;;;;;;16.20;99.90;;;;;;4994192;28;25065;-78
2021/06/23 05:46:40;;;;;;;;;;;16.40;99.90;;;;;;4993738;28;20039;-79
2021/06/23 05:49:05;;;;;;;;;;;16.30;99.90;;;;;;4976149;28;19905;-78
2021/06/23 05:51:31;;;;;;;;;;;16.40;99.90;;;;;;4993398;28;24079;-78
2021/06/23 05:53:57;;;;;;;;;;;16.40;99.90;;;;;;4975463;28;25128;-78
2021/06/23 06:09:19;;;;;;;;;;;17.80;99.90;;;;;;6062486;22;19923;-79
2021/06/23 06:11:45;;;;;;;;;;;18.20;99.90;;;;;;5010079;28;20295;-81
2021/06/23 06:14:10;;;;;;;11.80;5.88;;;18.50;99.90;;;;;;5002403;28;19917;-79
2021/06/23 06:16:36;;;;;;;8.32;5.78;;;18.70;99.90;;;;;;4998435;28;19912;-79
2021/06/23 06:19:01;;;;;;;11.13;6.15;;;18.70;99.90;;;;;;5012576;28;20492;-79
2021/06/23 06:21:27;;;;;;;11.88;6.80;;;18.60;99.90;;;;;;5012254;28;20120;-79
2021/06/23 06:23:53;;;;;;;9.98;6.15;;;19.30;99.90;;;;;;4992184;28;20022;-79
2021/06/23 06:26:19;;;;;;;7.43;5.13;;;20.40;99.90;;;;;;4993901;28;20018;-81
2021/06/23 06:28:45;;;;;;;6.63;4.70;;;20.80;99.90;;;;;;4995412;28;20022;-82
2021/06/23 06:31:10;;;;;;;6.85;5.45;;;20.80;99.90;;;;;;4993586;28;20034;-81
2021/06/23 06:33:36;;;;;;;8.95;6.22;;;20.90;99.90;;;;;;4993197;28;20065;-80
2021/06/23 06:36:02;;;;;;;7.72;5.82;;;21.60;99.90;;;;;;4993571;28;20405;-81
2021/06/23 06:38:28;;;;;;;12.07;7.70;;;20.90;99.90;;;;;;4992768;28;20018;-80
2021/06/23 06:40:54;;;;;;;7.55;6.28;;;20.40;99.90;;;;;;5008440;28;20399;-86
2021/06/23 06:43:21;;;;;;;17.13;10.38;;;20.40;99.90;;;;;;4994145;28;20034;-81
2021/06/23 06:45:48;;;;;;;;;;;20.60;99.90;;;;;;5002742;28;20033;-79
2021/06/23 06:48:14;;;;;;;13.30;9.68;;;20.20;99.90;;;;;;5013636;28;19928;-82
2021/06/23 06:50:39;;;;;;;14.80;9.73;;;20.00;99.90;;;;;;5006460;28;20488;-80
2021/06/23 06:53:05;;;;;;;15.85;9.40;;;19.60;99.90;;;;;;4999629;28;20674;-80
2021/06/23 06:55:31;;;;;;;14.70;10.18;;;19.40;99.90;;;;;;5011085;28;20030;-80
2021/06/23 06:57:57;;;;;;;14.10;9.88;;;19.40;99.90;;;;;;5010699;28;20022;-81
2021/06/23 07:00:23;;;;;;;15.63;10.73;;;19.20;99.90;;;;;;4991801;28;20018;-81
2021/06/23 07:02:51;;;;;;;14.18;10.70;;;18.70;99.90;;;;;;4992025;28;20026;-80
2021/06/23 07:05:17;;;;;;;15.60;11.07;;;18.60;99.90;;;;;;4991200;28;20150;-80
2021/06/23 07:07:42;;;;;;;16.55;9.80;;;18.50;99.90;;;;;;5007403;28;20062;-80
2021/06/23 07:10:08;;;;;;;17.73;10.30;;;18.40;99.90;;;;;;4993247;28;20034;-80
2021/06/23 07:12:34;;;;;;;15.83;11.00;;;18.60;99.90;;;;;;5003213;28;20271;-81
2021/06/23 07:15:00;;;;;;;14.60;10.13;;;18.70;99.90;;;;;;4991694;28;20444;-80
2021/06/23 07:17:26;;;;;;;20.13;11.90;;;19.00;99.90;;;;;;5011188;28;20033;-79
2021/06/23 07:19:51;;;;;;;16.73;12.43;;;18.90;99.90;;;;;;5027309;28;20018;-81
2021/06/23 07:22:17;;;;;;;18.60;12.32;;;19.00;99.90;;;;;;5012332;28;20029;-81
2021/06/23 07:24:42;;;;;;;16.77;12.32;;;19.30;99.90;;;;;;5014087;28;20032;-80
2021/06/23 07:27:08;;;;;;;16.17;11.88;;;19.40;99.90;;;;;;5010861;28;20489;-80
2021/06/23 07:29:34;;;;;;;15.00;11.65;;;19.40;99.90;;;;;;4992625;28;20053;-81
2021/06/23 07:32:03;;;;;;;17.50;11.88;;;19.90;99.90;;;;;;4997885;28;20034;-81
2021/06/23 07:36:59;;;;;;;14.48;11.75;;;21.10;99.90;;;;;;4999881;28;20022;-80
2021/06/23 07:39:25;;;;;;;16.05;10.45;;;21.00;99.90;;;;;;4998442;28;20038;-81
2021/06/23 07:41:51;;;;;;;16.30;10.70;;;20.90;99.90;;;;;;4997134;28;20226;-80
2021/06/23 07:44:21;;;;;;;13.00;10.75;;;21.10;99.90;;;;;;4998785;28;20045;-81
2021/06/23 07:46:49;;;;;;;11.85;9.80;;;21.10;99.90;;;;;;4997868;28;20089;-81
2021/06/23 07:49:16;;;;;;;12.98;10.00;;;21.20;99.90;;;;;;5003912;28;20030;-81
2021/06/23 08:08:36;;;;;;;16.90;14.63;;;20.80;99.90;;;;;;5015348;28;20041;-81
2021/06/23 08:11:16;;;;;;;;;;;20.70;99.90;;;;;;5014092;28;20527;-81
2021/06/23 08:13:42;;;;;;;17.23;14.98;;;20.70;99.90;;;;;;5014008;28;20394;-81
2021/06/23 08:16:07;;;;;;;20.85;16.52;;;20.90;99.90;;;;;;5013615;28;20053;-81
2021/06/23 08:18:33;;;;;;;17.50;14.18;;;20.90;99.90;;;;;;5011120;28;20489;-80
2021/06/23 08:20:59;;;;;;;19.08;15.32;;;20.10;99.90;;;;;;4996936;28;20034;-82
2021/06/23 08:23:24;;;;;;;23.33;16.23;;;20.40;99.90;;;;;;4997134;28;20027;-81
2021/06/23 08:25:50;;;;;;;17.48;13.45;;;20.70;99.90;;;;;;4996745;28;20038;-80
2021/06/23 08:28:15;;;;;;;18.83;13.82;;;20.80;99.90;;;;;;5011813;28;20093;-81
2021/06/23 08:30:41;;;;;;;18.42;14.60;;;21.00;99.90;;;;;;5012223;28;20030;-82
2021/06/23 08:33:06;;;;;;;21.85;16.77;;;21.20;99.90;;;;;;5013779;28;20022;-82
2021/06/23 08:35:32;;;;;;;21.27;16.23;;;21.40;99.90;;;;;;5015883;28;20026;-81
2021/06/23 08:37:58;;;;;;;22.38;16.35;;;21.80;99.90;;;;;;5017058;28;20511;-81
2021/06/23 08:40:24;;;;;;;17.77;15.32;;;22.90;99.90;;;;;;5032743;28;20084;-82
2021/06/23 08:42:50;;;;;;;18.13;13.53;;;23.50;99.90;;;;;;5033584;28;20032;-83
2021/06/23 08:45:15;;;;;;;16.75;12.13;;;23.30;99.90;;;;;;5017938;28;20030;-83
2021/06/23 08:47:44;;;;;;;17.85;12.27;;;23.40;99.90;;;;;;5017752;28;20034;-81
2021/06/23 08:50:13;;;;;;;14.70;11.57;;;23.50;99.90;;;;;;5016018;28;20036;-82
2021/06/23 08:52:39;;;;;;;14.63;13.13;;;23.40;99.90;;;;;;5015891;28;20026;-81
2021/06/23 08:55:05;;;;;;;18.45;14.02;;;23.60;99.90;;;;;;5019411;28;20040;-82
2021/06/23 08:57:33;;;;;;;18.02;14.00;;;23.20;99.90;;;;;;5018475;28;20152;-82
2021/06/23 09:00:00;;;;;;;17.38;14.30;;;22.50;99.90;;;;;;5018876;28;20033;-81
2021/06/23 09:02:26;;;;;;;17.02;14.82;;;23.00;99.90;;;;;;5018747;28;20025;-82
2021/06/23 09:05:05;;;;;;;17.60;13.00;;;22.90;99.90;;;;;;5020883;28;20405;-82
2021/06/23 09:07:48;;;;;;;15.07;12.10;;;22.80;99.90;;;;;;5018436;28;20280;-82
2021/06/23 09:10:23;;;;;;;16.45;12.77;;;23.00;99.90;;;;;;5019039;28;20030;-82
2021/06/23 09:13:12;;;;;;;14.50;11.82;;;22.90;99.90;;;;;;5018195;28;20037;-82
2021/06/23 09:15:41;;;;;;;14.07;12.30;;;23.20;99.90;;;;;;5014837;28;20026;-81
2021/06/23 09:18:18;;;;;;;13.85;11.32;;;23.40;99.90;;;;;;5033049;28;20022;-81
2021/06/23 09:20:46;;;;;;;16.10;12.30;;;23.80;99.90;;;;;;5033312;28;20028;-81
2021/06/23 09:23:12;;;;;;;14.57;12.13;;;24.30;99.90;;;;;;5034496;28;20488;-81
2021/06/23 09:25:39;;;;;;;12.52;11.13;;;24.40;99.90;;;;;;5027706;28;20040;-81
2021/06/23 09:28:13;;;;;;;15.68;12.50;;;24.20;99.90;;;;;;4998759;28;20039;-83
2021/06/23 09:30:41;;;;;;;15.85;12.30;;;23.50;99.90;;;;;;5003702;28;20113;-81
2021/06/23 09:33:11;;;;;;;16.48;13.95;;;23.10;99.90;;;;;;4997941;28;20441;-82
2021/06/23 09:35:40;;;;;;;19.13;13.55;;;23.80;99.90;;;;;;4993387;28;20117;-82
2021/06/23 09:38:06;;;;;;;14.68;11.52;;;24.30;99.90;;;;;;4994958;28;20026;-82
2021/06/23 09:40:40;;;;;;;17.50;13.73;;;25.20;99.90;;;;;;4995295;28;20037;-81
2021/06/23 09:43:07;;;;;;;14.57;12.43;;;25.50;99.90;;;;;;4994782;28;20022;-82
2021/06/23 09:45:33;;;;;;;15.13;11.77;;;25.80;99.90;;;;;;4995493;28;20026;-81
2021/06/23 09:48:04;;;;;;;12.37;10.10;;;25.80;99.90;;;;;;4995905;28;20023;-82
2021/06/23 09:50:31;;;;;;;11.25;9.73;;;26.00;99.90;;;;;;4997938;28;20328;-81
2021/06/23 09:52:58;;;;;;;11.05;9.85;;;25.90;99.90;;;;;;4995236;28;20068;-81
2021/06/23 09:55:34;;;;;;;;;;;25.80;99.90;;;;;;4997158;28;20018;-81
2021/06/23 09:58:21;;;;;;;;;;;25.60;99.90;;;;;;4998661;28;20005;-82
2021/06/23 10:01:11;;;;;;;10.88;8.93;;;26.40;99.90;;;;;;5000315;28;19906;-82
2021/06/23 10:04:04;;;;;;;11.27;8.57;;;26.40;99.90;;;;;;4997187;28;20159;-82
2021/06/23 10:06:33;;;;;;;10.30;7.88;;;26.10;99.90;;;;;;4996576;28;20418;-81
2021/06/23 10:09:34;;;;;;;9.05;8.13;;;25.00;99.90;;;;;;4997043;28;20033;-81
2021/06/23 10:12:06;;;;;;;8.27;7.47;;;24.30;99.90;;;;;;4923328;29;20546;-81
2021/06/23 10:14:39;;;;;;;9.00;7.60;;;24.60;99.90;;;;;;4988840;28;20044;-82
2021/06/23 10:17:05;;;;;;;7.70;6.97;;;25.70;99.90;;;;;;4996545;28;20022;-82
2021/06/23 10:19:32;;;;;;;6.70;6.03;;;26.70;99.90;;;;;;4997784;28;20030;-81
2021/06/23 10:22:06;;;;;;;9.27;7.28;;;27.40;99.90;;;;;;5014497;28;20118;-81
2021/06/23 10:24:33;;;;;;;9.60;6.78;;;27.20;99.90;;;;;;4999478;28;20113;-82
2021/06/23 10:27:02;;;;;;;7.95;6.55;;;25.70;99.90;;;;;;4996970;28;20560;-82
2021/06/23 10:29:30;;;;;;;8.57;7.40;;;25.50;99.90;;;;;;4998102;28;20022;-82
2021/06/23 10:31:57;;;;;;;7.75;6.95;;;26.20;99.90;;;;;;4997684;28;20040;-82
2021/06/23 10:34:23;;;;;;;;;;;26.70;99.90;;;;;;4997890;28;20421;-82
2021/06/23 10:36:49;;;;;;;8.30;6.93;;;27.20;99.90;;;;;;4998185;28;19966;-82
2021/06/23 10:39:16;;;;;;;8.43;6.95;;;26.40;99.90;;;;;;5000080;28;20042;-82
2021/06/23 10:41:43;;;;;;;;;;;26.70;99.90;;;;;;4998498;28;20082;-82
2021/06/23 10:44:24;;;;;;;9.60;6.15;;;26.90;99.90;;;;;;4998095;28;19905;-82
2021/06/23 10:46:53;;;;;;;6.10;5.50;;;27.40;99.90;;;;;;4999806;28;20030;-82
2021/06/23 10:49:50;;;;;;;7.25;6.10;;;27.20;99.90;;;;;;4997622;28;20026;-82
2021/06/23 10:52:22;;;;;;;7.78;6.93;;;26.20;99.90;;;;;;4998993;28;20102;-82
2021/06/23 10:54:57;;;;;;;7.65;6.30;;;26.60;99.90;;;;;;5000711;28;20057;-82
2021/06/23 10:57:29;;;;;;;9.20;7.37;;;26.10;99.90;;;;;;4999739;28;20023;-82
2021/06/23 10:59:56;;;;;;;7.07;6.45;;;25.40;99.90;;;;;;5003102;28;20052;-81
2021/06/23 11:02:34;;;;;;;6.75;6.10;;;24.70;99.90;;;;;;5007013;28;20153;-81
2021/06/23 11:05:01;;;;;;;8.05;5.70;;;24.50;99.90;;;;;;5010370;28;20049;-81
2021/06/23 11:07:33;;;;;;;;;;;24.40;99.90;;;;;;5011907;28;20029;-82
2021/06/23 11:10:17;;;;;;;4.68;4.18;;;24.90;99.90;;;;;;5014947;28;19913;-82
2021/06/23 11:13:00;;;;;;;6.65;5.35;;;26.40;99.90;;;;;;5013243;28;20069;-82
2021/06/23 11:15:35;;;;;;;3.28;2.85;;;27.10;99.90;;;;;;5016742;28;20019;-82
2021/06/23 11:18:19;;;;;;;5.07;3.22;;;27.60;99.90;;;;;;5014468;28;20090;-82
2021/06/23 11:20:55;;;;;;;3.85;3.53;;;27.80;99.90;;;;;;5013599;28;20026;-81
2021/06/23 11:23:44;;;;;;;4.10;3.80;;;27.40;99.90;;;;;;5014612;28;20018;-82
2021/06/23 11:26:29;;;;;;;5.53;2.53;;;27.50;99.90;;;;;;5013752;28;20076;-82
2021/06/23 11:29:10;;;;;;;4.25;3.85;;;27.60;99.90;;;;;;5015439;28;20046;-82
2021/06/23 11:31:59;;;;;;;6.22;5.63;;;27.20;99.90;;;;;;5010687;28;20064;-82
2021/06/23 11:34:37;;;;;;;7.15;5.28;;;26.90;99.90;;;;;;5013317;28;20056;-81
2021/06/23 11:37:06;;;;;;;5.38;4.88;;;27.10;99.90;;;;;;5010999;28;20113;-82
2021/06/23 11:39:32;;;;;;;5.35;4.85;;;27.50;99.90;;;;;;5010470;28;20076;-81
2021/06/23 11:41:58;;;;;;;5.47;4.83;;;27.40;99.90;;;;;;5008465;28;20476;-80
2021/06/23 11:44:23;;;;;;;4.93;4.40;;;26.70;99.90;;;;;;5006646;28;20539;-81
2021/06/23 11:46:49;;;;;;;5.73;5.17;;;26.90;99.90;;;;;;5002066;28;20054;-80
2021/06/23 11:49:14;;;;;;;5.97;5.37;;;26.60;99.90;;;;;;4999871;28;20101;-81
2021/06/23 11:51:42;;;;;;;9.57;5.53;;;26.40;99.90;;;;;;5005444;28;20026;-82
2021/06/23 11:54:08;;;;;;;5.95;5.43;;;26.70;99.90;;;;;;5011072;28;20084;-81
2021/06/23 11:56:34;;;;;;;7.57;5.40;;;27.30;99.90;;;;;;5001215;28;20425;-82
2021/06/23 11:58:59;;;;;;;5.60;5.10;;;27.10;99.90;;;;;;5000010;28;20022;-80
2021/06/23 12:01:25;;;;;;;7.83;4.90;;;26.70;99.90;;;;;;4999881;28;20431;-81
2021/06/23 12:03:52;;;;;;;;;;;25.70;99.90;;;;;;4999154;28;20497;-82
2021/06/23 12:06:17;;;;;;;5.53;4.95;;;25.10;99.90;;;;;;5002805;28;20142;-83
2021/06/23 12:08:43;;;;;;;5.10;4.70;;;24.70;99.90;;;;;;5016567;28;20025;-83
2021/06/23 12:11:09;;;;;;;5.83;4.23;;;24.60;99.90;;;;;;5016619;28;20125;-80
2021/06/23 12:13:35;;;;;;;4.37;4.00;;;25.50;99.90;;;;;;4999777;28;20134;-83
2021/06/23 12:16:01;;;;;;;;;;;26.20;99.90;;;;;;4995641;28;20052;-82
2021/06/23 12:18:26;;;;;;;;;;;26.70;99.90;;;;;;4998013;28;20017;-81
2021/06/23 12:20:52;;;;;;;;;;;27.50;99.90;;;;;;4996566;28;20018;-82
2021/06/23 12:23:18;;;;;;;;;;;26.80;99.90;;;;;;4996688;28;20026;-83
2021/06/23 12:25:45;;;;;;;;;;;26.20;99.90;;;;;;5032480;28;20038;-81
2021/06/23 12:28:11;;;;;;;;;;;25.50;99.90;;;;;;5016196;28;20033;-81
2021/06/23 12:30:39;;;;;;;;;;;25.20;99.90;;;;;;5016537;28;20096;-81
2021/06/23 12:33:07;;;;;;;;;;;25.10;99.90;;;;;;5031230;28;19912;-83
2021/06/23 12:35:32;;;;;;;;;;;25.60;99.90;;;;;;5015570;28;19910;-83
2021/06/23 12:37:58;;;;;;;;;;;26.10;99.90;;;;;;5015313;28;19906;-82
2021/06/23 12:40:24;;;;;;;;;;;27.00;99.90;;;;;;5016909;28;19937;-82
2021/06/23 12:42:50;;;;;;;;;;;27.80;99.90;;;;;;5015036;28;19916;-83
2021/06/23 12:45:15;;;;;;;;;;;28.10;99.90;;;;;;5031626;28;19928;-81
2021/06/23 12:47:41;;;;;;;;;;;28.10;99.90;;;;;;5016834;28;19909;-82
2021/06/23 12:50:08;;;;;;;;;;;27.80;99.90;;;;;;5015753;28;20158;-82
2021/06/23 12:52:33;;;;;;;;;;;27.00;99.90;;;;;;5015886;28;19910;-80
2021/06/23 12:54:59;;;;;;;;;;;26.10;99.90;;;;;;5015271;28;20000;-82
2021/06/23 12:57:25;;;;;;;;;;;25.50;99.90;;;;;;5015549;28;19909;-80
2021/06/23 12:59:51;;;;;;;;;;;25.20;99.90;;;;;;5015028;28;19906;-81
2021/06/23 13:02:16;;;;;;;;;;;24.80;99.90;;;;;;4996585;28;19906;-82
2021/06/23 13:04:42;;;;;;;;;;;24.60;99.90;;;;;;4997092;28;20369;-81
2021/06/23 13:07:07;;;;;;;;;;;24.90;99.90;;;;;;4999738;28;20316;-83
2021/06/23 13:09:33;;;;;;;;;;;26.10;99.90;;;;;;4996441;28;19925;-83
2021/06/23 13:12:01;;;;;;;;;;;27.00;99.90;;;;;;4996778;28;19988;-83
2021/06/23 13:14:26;;;;;;;;;;;27.90;99.90;;;;;;4996500;28;19940;-85
2021/06/23 13:16:52;;;;;;;;;;;27.90;99.90;;;;;;4999511;28;19933;-82
2021/06/23 13:19:17;;;;;;;;;;;28.10;99.90;;;;;;4996992;28;20000;-82
2021/06/23 13:21:43;;;;;;;;;;;28.30;99.90;;;;;;4994795;28;20024;-82
2021/06/23 13:24:08;;;;;;;;;;;28.50;99.90;;;;;;4995684;28;20040;-81
2021/06/23 13:26:34;;;;;;;;;;;28.10;99.90;;;;;;5010591;28;20103;-82
2021/06/23 13:28:59;;;;;;;;;;;27.30;99.90;;;;;;4992606;28;19913;-81
2021/06/23 13:31:25;;;;;;;;;;;26.70;99.90;;;;;;5011679;28;20029;-81
2021/06/23 13:33:50;;;;;;;;;;;26.10;99.90;;;;;;4994701;28;20458;-83
2021/06/23 13:36:16;;;;;;;;;;;25.70;99.90;;;;;;4996237;28;24123;-82
2021/06/23 13:38:41;;;;;;;;;;;25.50;99.90;;;;;;4996437;28;24083;-82
2021/06/23 13:41:07;;;;;;;;;;;25.40;99.90;;;;;;4995503;28;24071;-81
2021/06/23 13:43:33;;;;;;;;;;;25.30;99.90;;;;;;4996019;28;20428;-81
2021/06/23 13:45:59;;;;;;;;;;;25.60;99.90;;;;;;4996364;28;20368;-83
2021/06/23 13:48:24;;;;;;;;;;;26.40;99.90;;;;;;4996832;28;20000;-83
2021/06/23 13:50:50;;;;;;;;;;;26.80;99.90;;;;;;4995692;28;19951;-82
2021/06/23 13:53:16;;;;;;;;;;;27.50;99.90;;;;;;4995533;28;19912;-83
2021/06/23 13:55:42;;;;;;;;;;;27.80;99.90;;;;;;4998120;28;19917;-82
2021/06/23 13:58:08;;;;;;;;;;;28.10;99.90;;;;;;4996472;28;19905;-82
2021/06/23 14:00:38;;;;;;;;;;;28.20;99.90;;;;;;4999542;28;19906;-82
2021/06/23 14:03:07;;;;;;;;;;;28.40;99.90;;;;;;5012686;28;19929;-83
2021/06/23 14:05:34;;;;;;;;;;;28.80;99.90;;;;;;5013718;28;19913;-84
2021/06/23 14:07:59;;;;;;;;;;;28.90;99.90;;;;;;5015314;28;20000;-83
2021/06/23 14:10:25;;;;;;;;;;;28.70;99.90;;;;;;5016319;28;19961;-83